Time;durP1;ratioP1;P1;durP2;ratioP2;P2;SDS_P1;SDS_P2;PMS_P1;PMS_P2;Temp;Humidity;BMP_temperature;BMP_pressure;BME280_temperature;BME280_humidity;BME280_pressure;Samples;Min_cycle;Max_cycle;Signal;HPM_P1;HPM_P2
2023/06/10 00:00:53;;;;;;;26.00;24.20;;;;;;;;;;5078782;28;20553;-79
2023/06/10 00:03:23;;;;;;;26.33;24.53;;;;;;;;;;5078537;28;20438;-79
2023/06/10 00:05:50;;;;;;;27.10;25.30;;;;;;;;;;5077271;28;20415;-80
2023/06/10 00:08:19;;;;;;;27.90;26.10;;;;;;;;;;5079078;28;20496;-79
2023/06/10 00:10:46;;;;;;;26.50;24.90;;;;;;;;;;5080609;28;20485;-79
2023/06/10 00:13:15;;;;;;;26.77;24.97;;;;;;;;;;5080158;28;20762;-79
2023/06/10 00:15:43;;;;;;;25.80;24.10;;;;;;;;;;5080579;28;20427;-78
2023/06/10 00:18:11;;;;;;;25.37;23.67;;;;;;;;;;5081302;28;20432;-78
2023/06/10 00:20:38;;;;;;;26.20;24.40;;;;;;;;;;5080926;28;20491;-78
2023/06/10 00:23:08;;;;;;;25.63;24.03;;;;;;;;;;5081766;28;20457;-79
2023/06/10 00:25:35;;;;;;;25.37;23.77;;;;;;;;;;5076048;28;20450;-79
2023/06/10 00:28:02;;;;;;;26.13;24.53;;;;;;;;;;5077375;28;20543;-78
2023/06/10 00:30:30;;;;;;;27.30;25.20;;;;;;;;;;5076024;28;20493;-77
2023/06/10 00:32:57;;;;;;;26.97;24.93;;;;;;;;;;5075690;28;20516;-79
2023/06/10 00:35:24;;;;;;;26.87;25.07;;;;;;;;;;5077029;28;20453;-79
2023/06/10 00:37:51;;;;;;;25.20;23.70;;;;;;;;;;5076203;28;20450;-78
2023/06/10 00:40:18;;;;;;;26.83;25.10;;;;;;;;;;5080465;28;20504;-78
2023/06/10 00:42:45;;;;;;;27.93;25.83;;;;;;;;;;5075691;28;20531;-79
2023/06/10 00:45:12;;;;;;;26.60;24.80;;;;;;;;;;5076330;28;20424;-79
2023/06/10 00:47:41;;;;;;;25.40;23.90;;;;;;;;;;5075987;28;20481;-79
2023/06/10 00:50:08;;;;;;;26.73;24.80;;;;;;;;;;5076097;28;20466;-79
2023/06/10 00:52:37;;;;;;;26.67;25.07;;;;;;;;;;5075329;28;20462;-79
2023/06/10 00:55:04;;;;;;;25.27;23.57;;;;;;;;;;5076162;28;20460;-79
2023/06/10 00:57:32;;;;;;;26.50;24.80;;;;;;;;;;5076189;28;20429;-77
2023/06/10 00:59:59;;;;;;;25.40;23.90;;;;;;;;;;5076098;28;20476;-79
2023/06/10 01:02:26;;;;;;;26.47;24.77;;;;;;;;;;5076315;28;20829;-79
2023/06/10 01:04:55;;;;;;;25.70;24.20;;;;;;;;;;5079042;28;20437;-78
2023/06/10 01:07:25;;;;;;;26.23;24.40;;;;;;;;;;5077224;28;20452;-79
2023/06/10 01:09:56;;;;;;;24.70;23.10;;;;;;;;;;5075277;28;20452;-78
2023/06/10 01:12:28;;;;;;;26.20;24.60;;;;;;;;;;5076573;28;20762;-78
2023/06/10 01:14:55;;;;;;;25.57;23.97;;;;;;;;;;5076401;28;20460;-79
2023/06/10 01:17:22;;;;;;;26.50;24.90;;;;;;;;;;5074819;28;20478;-78
2023/06/10 01:19:56;;;;;;;26.00;24.40;;;;;;;;;;5075847;28;20449;-79
2023/06/10 01:22:25;;;;;;;26.13;24.33;;;;;;;;;;5075269;28;20456;-79
2023/06/10 01:24:53;;;;;;;26.77;25.00;;;;;;;;;;5076036;28;20861;-78
2023/06/10 01:27:21;;;;;;;26.10;24.50;;;;;;;;;;5076220;28;20990;-79
2023/06/10 01:29:52;;;;;;;26.07;24.47;;;;;;;;;;5076043;28;20440;-79
2023/06/10 01:32:22;;;;;;;25.33;23.73;;;;;;;;;;5078256;28;20444;-79
2023/06/10 01:34:50;;;;;;;25.23;23.57;;;;;;;;;;5075433;28;20492;-82
2023/06/10 01:37:19;;;;;;;25.13;23.53;;;;;;;;;;5074869;28;20859;-80
2023/06/10 01:39:48;;;;;;;25.30;23.80;;;;;;;;;;5074929;28;20515;-78
2023/06/10 01:42:15;;;;;;;25.57;24.07;;;;;;;;;;5075363;28;20514;-80
2023/06/10 01:44:42;;;;;;;26.03;24.33;;;;;;;;;;5074889;28;20866;-81
2023/06/10 01:47:09;;;;;;;25.00;23.50;;;;;;;;;;5073870;28;20823;-78
2023/06/10 01:49:36;;;;;;;24.93;23.53;;;;;;;;;;5074027;28;20477;-78
2023/06/10 01:52:03;;;;;;;25.47;23.60;;;;;;;;;;5075014;28;20495;-80
2023/06/10 01:54:31;;;;;;;25.80;23.87;;;;;;;;;;5074628;28;20449;-79
2023/06/10 01:56:59;;;;;;;25.63;24.03;;;;;;;;;;5074254;28;20460;-79
2023/06/10 01:59:26;;;;;;;24.87;22.97;;;;;;;;;;5075915;28;20457;-78
2023/06/10 02:01:53;;;;;;;25.30;23.80;;;;;;;;;;5074022;28;20461;-78
2023/06/10 02:04:20;;;;;;;24.83;23.33;;;;;;;;;;5074929;28;20450;-80
2023/06/10 02:06:48;;;;;;;25.00;23.47;;;;;;;;;;5073953;28;20482;-78
2023/06/10 02:09:15;;;;;;;25.37;23.73;;;;;;;;;;5075310;28;20452;-78
2023/06/10 02:11:42;;;;;;;25.30;23.80;;;;;;;;;;5076975;28;20463;-78
2023/06/10 02:14:10;;;;;;;25.17;23.57;;;;;;;;;;5075202;28;20454;-79
2023/06/10 02:16:37;;;;;;;25.70;24.00;;;;;;;;;;5074711;28;20453;-77
2023/06/10 02:19:06;;;;;;;26.20;24.40;;;;;;;;;;5075434;28;20512;-78
2023/06/10 02:21:34;;;;;;;25.57;23.97;;;;;;;;;;5073373;28;20474;-78
2023/06/10 02:24:01;;;;;;;25.83;23.83;;;;;;;;;;5074129;28;20424;-78
2023/06/10 02:26:28;;;;;;;25.40;23.83;;;;;;;;;;5074960;28;20477;-77
2023/06/10 02:28:55;;;;;;;25.80;24.10;;;;;;;;;;5085481;28;20426;-79
2023/06/10 02:31:24;;;;;;;24.73;23.23;;;;;;;;;;5097962;28;20458;-77
2023/06/10 02:33:51;;;;;;;26.13;24.30;;;;;;;;;;5097423;28;20540;-78
2023/06/10 02:36:17;;;;;;;25.00;23.70;;;;;;;;;;5082408;28;20449;-79
2023/06/10 02:38:44;;;;;;;26.10;24.23;;;;;;;;;;5074464;28;20493;-80
2023/06/10 02:41:11;;;;;;;24.73;23.23;;;;;;;;;;5075176;28;20522;-79
2023/06/10 02:43:39;;;;;;;25.83;24.23;;;;;;;;;;5074723;28;20434;-79
2023/06/10 02:46:06;;;;;;;26.20;24.50;;;;;;;;;;5079020;28;20453;-79
2023/06/10 02:48:41;;;;;;;25.87;24.27;;;;;;;;;;5075034;28;20785;-79
2023/06/10 02:51:08;;;;;;;26.13;24.53;;;;;;;;;;5074177;28;20473;-79
2023/06/10 02:53:35;;;;;;;24.77;23.17;;;;;;;;;;5074825;28;21071;-80
2023/06/10 02:56:02;;;;;;;26.00;24.30;;;;;;;;;;5074754;28;20499;-79
2023/06/10 02:58:30;;;;;;;25.90;24.20;;;;;;;;;;5074599;28;20880;-79
2023/06/10 03:00:58;;;;;;;25.87;24.27;;;;;;;;;;5075670;28;20485;-80
2023/06/10 03:03:25;;;;;;;25.10;23.40;;;;;;;;;;5074734;28;20453;-79
2023/06/10 03:05:53;;;;;;;25.67;23.90;;;;;;;;;;5074143;28;20941;-79
2023/06/10 03:08:20;;;;;;;26.10;24.30;;;;;;;;;;5072563;28;20488;-76
2023/06/10 03:10:47;;;;;;;26.70;24.83;;;;;;;;;;5072039;28;20469;-77
2023/06/10 03:13:15;;;;;;;25.40;23.90;;;;;;;;;;5071643;28;20458;-78
2023/06/10 03:15:42;;;;;;;28.20;26.10;;;;;;;;;;5071875;28;20452;-77
2023/06/10 03:18:09;;;;;;;25.60;24.10;;;;;;;;;;5072112;28;20473;-77
2023/06/10 03:20:37;;;;;;;25.93;24.30;;;;;;;;;;5075341;28;20484;-76
2023/06/10 03:23:06;;;;;;;27.10;25.30;;;;;;;;;;5072932;28;20541;-77
2023/06/10 03:25:33;;;;;;;26.00;24.30;;;;;;;;;;5071817;28;20483;-77
2023/06/10 03:28:01;;;;;;;26.27;24.60;;;;;;;;;;5071760;28;21340;-78
2023/06/10 03:30:28;;;;;;;26.80;25.17;;;;;;;;;;5072387;28;20932;-77
2023/06/10 03:32:55;;;;;;;25.13;23.63;;;;;;;;;;5072670;28;20445;-77
2023/06/10 03:35:22;;;;;;;25.97;24.30;;;;;;;;;;5072807;28;20417;-77
2023/06/10 03:37:49;;;;;;;25.77;24.17;;;;;;;;;;5071042;28;20500;-77
2023/06/10 03:40:17;;;;;;;26.67;24.53;;;;;;;;;;5073466;28;20488;-77
2023/06/10 03:42:44;;;;;;;25.80;24.00;;;;;;;;;;5075954;28;20432;-77
2023/06/10 03:45:12;;;;;;;26.40;24.43;;;;;;;;;;5076130;28;20453;-77
2023/06/10 03:47:40;;;;;;;25.47;23.90;;;;;;;;;;5075188;28;20992;-75
2023/06/10 03:50:08;;;;;;;25.87;24.27;;;;;;;;;;5075292;28;20499;-76
2023/06/10 03:52:35;;;;;;;24.80;23.30;;;;;;;;;;5075949;28;20471;-76
2023/06/10 03:55:03;;;;;;;27.13;24.60;;;;;;;;;;5076472;28;20863;-77
2023/06/10 03:57:31;;;;;;;25.33;23.70;;;;;;;;;;5076362;28;20417;-76
2023/06/10 03:59:59;;;;;;;25.90;24.30;;;;;;;;;;5079715;28;20447;-76
2023/06/10 04:02:26;;;;;;;26.33;24.60;;;;;;;;;;5075393;28;20447;-76
2023/06/10 04:04:53;;;;;;;25.87;24.17;;;;;;;;;;5075136;28;20519;-76
2023/06/10 04:07:21;;;;;;;24.13;22.63;;;;;;;;;;5075107;28;20484;-76
2023/06/10 04:09:48;;;;;;;25.60;23.77;;;;;;;;;;5075552;28;20512;-75
2023/06/10 04:12:16;;;;;;;26.07;24.47;;;;;;;;;;5075648;28;20451;-75
2023/06/10 04:14:44;;;;;;;25.33;23.73;;;;;;;;;;5075420;28;20536;-77
2023/06/10 04:17:12;;;;;;;25.47;23.57;;;;;;;;;;5074627;28;20413;-75
2023/06/10 04:19:39;;;;;;;25.20;23.40;;;;;;;;;;5074745;28;20495;-76
2023/06/10 04:22:06;;;;;;;25.80;23.90;;;;;;;;;;5075370;28;20484;-76
2023/06/10 04:24:33;;;;;;;26.07;24.37;;;;;;;;;;5075188;28;20453;-75
2023/06/10 04:27:00;;;;;;;25.90;24.27;;;;;;;;;;5074357;28;20436;-76
2023/06/10 04:29:27;;;;;;;26.13;24.40;;;;;;;;;;5075050;28;20545;-76
2023/06/10 04:31:55;;;;;;;25.70;24.10;;;;;;;;;;5074522;28;20473;-75
2023/06/10 04:34:22;;;;;;;26.30;24.40;;;;;;;;;;5074799;28;20449;-75
2023/06/10 04:36:50;;;;;;;25.03;23.43;;;;;;;;;;5074568;28;20846;-76
2023/06/10 04:39:18;;;;;;;25.60;23.90;;;;;;;;;;5074877;28;20495;-77
2023/06/10 04:41:45;;;;;;;25.97;24.37;;;;;;;;;;5074072;28;20499;-76
2023/06/10 04:44:12;;;;;;;25.50;23.90;;;;;;;;;;5074829;28;20460;-75
2023/06/10 04:46:39;;;;;;;25.53;23.80;;;;;;;;;;5076431;28;20449;-76
2023/06/10 04:49:07;;;;;;;26.10;24.37;;;;;;;;;;5074797;28;20484;-77
2023/06/10 04:51:35;;;;;;;25.07;23.43;;;;;;;;;;5074446;28;20556;-76
2023/06/10 04:54:03;;;;;;;26.13;24.43;;;;;;;;;;5078845;28;20445;-76
2023/06/10 04:56:30;;;;;;;26.00;24.20;;;;;;;;;;5074193;28;20869;-76
2023/06/10 04:58:57;;;;;;;26.17;24.23;;;;;;;;;;5076695;28;20445;-76
2023/06/10 05:01:24;;;;;;;25.47;23.67;;;;;;;;;;5073362;28;20476;-75
2023/06/10 05:03:51;;;;;;;26.27;24.50;;;;;;;;;;5074919;28;20457;-76
2023/06/10 05:06:19;;;;;;;25.50;23.90;;;;;;;;;;5074044;28;20474;-75
2023/06/10 05:08:46;;;;;;;24.57;22.90;;;;;;;;;;5071807;28;20531;-75
2023/06/10 05:11:13;;;;;;;25.73;24.03;;;;;;;;;;5074035;28;20466;-76
2023/06/10 05:13:40;;;;;;;25.47;23.77;;;;;;;;;;5074397;28;20449;-75
2023/06/10 05:16:09;;;;;;;24.80;23.20;;;;;;;;;;5073437;28;20473;-75
2023/06/10 05:18:36;;;;;;;25.40;23.70;;;;;;;;;;5074145;28;20450;-75
2023/06/10 05:21:03;;;;;;;24.37;22.67;;;;;;;;;;5073279;28;20493;-75
2023/06/10 05:23:31;;;;;;;25.90;24.10;;;;;;;;;;5073748;28;20444;-75
2023/06/10 05:25:59;;;;;;;25.23;23.43;;;;;;;;;;5072125;28;20871;-75
2023/06/10 05:28:27;;;;;;;24.93;23.30;;;;;;;;;;5074004;28;21009;-74
2023/06/10 05:30:54;;;;;;;25.30;23.30;;;;;;;;;;5073917;28;20496;-75
2023/06/10 05:33:21;;;;;;;24.53;23.00;;;;;;;;;;5074082;28;20576;-75
2023/06/10 05:35:48;;;;;;;24.60;23.00;;;;;;;;;;5073109;28;20432;-75
2023/06/10 05:38:15;;;;;;;24.77;23.07;;;;;;;;;;5073331;28;20468;-75
2023/06/10 05:40:43;;;;;;;24.93;23.30;;;;;;;;;;5073291;28;20568;-75
2023/06/10 05:43:11;;;;;;;25.10;23.47;;;;;;;;;;5073696;28;20431;-75
2023/06/10 05:45:40;;;;;;;25.20;23.60;;;;;;;;;;5073426;28;20539;-75
2023/06/10 05:48:07;;;;;;;25.57;23.87;;;;;;;;;;5073594;28;20517;-74
2023/06/10 05:50:38;;;;;;;26.00;24.20;;;;;;;;;;5072638;28;20481;-75
2023/06/10 05:53:06;;;;;;;25.30;23.53;;;;;;;;;;5073721;28;20437;-74
2023/06/10 05:55:33;;;;;;;24.77;23.27;;;;;;;;;;5073153;28;20458;-75
2023/06/10 05:58:02;;;;;;;24.00;22.20;;;;;;;;;;5073468;28;20416;-77
2023/06/10 06:00:29;;;;;;;24.30;22.30;;;;;;;;;;5072797;28;20957;-74
2023/06/10 06:02:57;;;;;;;24.40;22.73;;;;;;;;;;5073338;28;21113;-75
2023/06/10 06:05:24;;;;;;;24.63;23.13;;;;;;;;;;5075371;28;20485;-76
2023/06/10 06:07:51;;;;;;;24.60;22.80;;;;;;;;;;5074797;28;20460;-76
2023/06/10 06:10:18;;;;;;;24.33;22.70;;;;;;;;;;5073423;28;20509;-76
2023/06/10 06:12:45;;;;;;;23.93;22.43;;;;;;;;;;5073579;28;20420;-76
2023/06/10 06:15:13;;;;;;;24.80;23.03;;;;;;;;;;5073181;28;20436;-77
2023/06/10 06:17:40;;;;;;;25.10;23.40;;;;;;;;;;5072534;28;20420;-75
2023/06/10 06:20:08;;;;;;;25.90;24.10;;;;;;;;;;5072977;28;20531;-77
2023/06/10 06:22:35;;;;;;;25.07;23.53;;;;;;;;;;5072972;28;20909;-75
2023/06/10 06:25:02;;;;;;;24.83;23.23;;;;;;;;;;5073079;28;20423;-75
2023/06/10 06:27:29;;;;;;;25.60;23.93;;;;;;;;;;5072594;28;20986;-75
2023/06/10 06:29:56;;;;;;;25.53;23.70;;;;;;;;;;5072803;28;20489;-76
2023/06/10 06:32:27;;;;;;;24.60;23.10;;;;;;;;;;5075015;28;20462;-77
2023/06/10 06:34:54;;;;;;;24.40;22.80;;;;;;;;;;5072978;28;20413;-77
2023/06/10 06:37:23;;;;;;;25.83;23.73;;;;;;;;;;5072319;28;20626;-76
2023/06/10 06:39:50;;;;;;;25.13;23.63;;;;;;;;;;5072697;28;20473;-76
2023/06/10 06:42:17;;;;;;;25.50;23.73;;;;;;;;;;5072963;28;20424;-75
2023/06/10 06:44:44;;;;;;;25.13;23.33;;;;;;;;;;5072900;28;20420;-75
2023/06/10 06:47:11;;;;;;;25.43;23.80;;;;;;;;;;5072420;28;20480;-75
2023/06/10 06:49:48;;;;;;;24.53;22.93;;;;;;;;;;5072613;28;20541;-76
2023/06/10 06:52:16;;;;;;;25.33;23.73;;;;;;;;;;5072352;28;20523;-75
2023/06/10 06:54:43;;;;;;;26.20;24.40;;;;;;;;;;5074007;28;20787;-76
2023/06/10 06:57:10;;;;;;;25.20;23.60;;;;;;;;;;5075249;28;20455;-75
2023/06/10 06:59:37;;;;;;;24.50;23.00;;;;;;;;;;5077680;28;20462;-76
2023/06/10 07:02:04;;;;;;;25.93;24.17;;;;;;;;;;5073232;28;20476;-75
2023/06/10 07:04:31;;;;;;;25.23;23.57;;;;;;;;;;5074094;28;20511;-75
2023/06/10 07:07:00;;;;;;;25.07;23.47;;;;;;;;;;5074934;28;20470;-75
2023/06/10 07:09:28;;;;;;;24.10;22.60;;;;;;;;;;5077883;28;20496;-75
2023/06/10 07:11:55;;;;;;;25.97;24.17;;;;;;;;;;5075946;28;20461;-76
2023/06/10 07:14:22;;;;;;;25.40;23.77;;;;;;;;;;5079024;28;20479;-76
2023/06/10 07:16:49;;;;;;;24.87;23.17;;;;;;;;;;5084451;28;20507;-77
2023/06/10 07:19:16;;;;;;;24.80;23.00;;;;;;;;;;5089963;28;20473;-88
2023/06/10 07:21:43;;;;;;;25.23;23.53;;;;;;;;;;5090309;28;20459;-88
2023/06/10 07:24:12;;;;;;;25.33;23.57;;;;;;;;;;5084152;28;20451;-86
2023/06/10 07:26:39;;;;;;;25.40;23.60;;;;;;;;;;5080954;28;20428;-78
2023/06/10 07:29:06;;;;;;;24.73;22.93;;;;;;;;;;5080719;28;20956;-81
2023/06/10 07:31:32;;;;;;;25.10;23.50;;;;;;;;;;5080254;28;20531;-76
2023/06/10 07:34:00;;;;;;;25.13;23.43;;;;;;;;;;5079367;28;20498;-76
2023/06/10 07:36:29;;;;;;;25.77;24.10;;;;;;;;;;5078750;28;20503;-77
2023/06/10 07:38:56;;;;;;;25.77;23.93;;;;;;;;;;5077573;28;21001;-76
2023/06/10 07:41:25;;;;;;;26.57;24.70;;;;;;;;;;5077303;28;20470;-75
2023/06/10 07:43:54;;;;;;;26.07;24.37;;;;;;;;;;5077144;28;20426;-76
2023/06/10 07:46:22;;;;;;;25.17;23.57;;;;;;;;;;5077493;28;20504;-76
2023/06/10 07:48:49;;;;;;;25.43;23.70;;;;;;;;;;5079500;28;20477;-76
2023/06/10 07:51:16;;;;;;;26.07;24.40;;;;;;;;;;5076562;28;20543;-77
2023/06/10 07:53:43;;;;;;;25.00;23.40;;;;;;;;;;5078757;28;20481;-76
2023/06/10 07:56:10;;;;;;;26.30;24.50;;;;;;;;;;5078276;28;20441;-76
2023/06/10 07:58:38;;;;;;;25.00;23.50;;;;;;;;;;5079120;28;20442;-83
2023/06/10 08:01:06;;;;;;;25.33;23.53;;;;;;;;;;5079725;28;20548;-86
2023/06/10 08:03:33;;;;;;;25.53;23.93;;;;;;;;;;5080857;28;20436;-87
2023/06/10 08:06:00;;;;;;;26.87;24.80;;;;;;;;;;5082034;28;20937;-83
2023/06/10 08:08:28;;;;;;;26.37;24.60;;;;;;;;;;5084103;28;20817;-78
2023/06/10 08:10:55;;;;;;;26.20;24.40;;;;;;;;;;5080702;28;20498;-78
2023/06/10 08:13:22;;;;;;;26.70;24.40;;;;;;;;;;5080600;28;20434;-78
2023/06/10 08:15:53;;;;;;;25.67;23.87;;;;;;;;;;5078003;28;20442;-78
2023/06/10 08:18:20;;;;;;;26.50;24.20;;;;;;;;;;5080867;28;20462;-78
2023/06/10 08:20:47;;;;;;;26.53;24.70;;;;;;;;;;5080893;28;20474;-77
2023/06/10 08:23:15;;;;;;;25.07;23.40;;;;;;;;;;5077708;28;20465;-78
2023/06/10 08:25:42;;;;;;;24.67;23.07;;;;;;;;;;5079444;28;20454;-77
2023/06/10 08:28:09;;;;;;;25.67;23.60;;;;;;;;;;5080139;28;20441;-77
2023/06/10 08:30:36;;;;;;;25.23;23.63;;;;;;;;;;5078195;28;20463;-77
2023/06/10 08:33:05;;;;;;;25.60;23.90;;;;;;;;;;5079475;28;20437;-78
2023/06/10 08:35:32;;;;;;;26.43;24.53;;;;;;;;;;5079211;28;20423;-78
2023/06/10 08:37:59;;;;;;;26.60;24.83;;;;;;;;;;5079191;28;20439;-79
2023/06/10 08:40:26;;;;;;;26.80;25.10;;;;;;;;;;5080869;28;21148;-79
2023/06/10 08:42:55;;;;;;;25.87;24.20;;;;;;;;;;5078193;28;20446;-78
2023/06/10 08:45:23;;;;;;;26.87;25.00;;;;;;;;;;5077501;28;20787;-78
2023/06/10 08:47:52;;;;;;;27.43;25.60;;;;;;;;;;5076908;28;20429;-79
2023/06/10 08:50:21;;;;;;;26.50;24.70;;;;;;;;;;5075897;28;20507;-77
2023/06/10 08:52:50;;;;;;;26.90;25.10;;;;;;;;;;5076709;28;20416;-78
2023/06/10 08:55:22;;;;;;;24.93;23.43;;;;;;;;;;5076185;28;20470;-78
2023/06/10 08:57:49;;;;;;;26.40;24.70;;;;;;;;;;5079018;28;20484;-77
2023/06/10 09:00:17;;;;;;;27.57;25.60;;;;;;;;;;5078722;28;20464;-78
2023/06/10 09:02:44;;;;;;;27.40;25.30;;;;;;;;;;5080564;28;20928;-78
2023/06/10 09:05:11;;;;;;;26.67;24.80;;;;;;;;;;5077888;28;20481;-78
2023/06/10 09:07:40;;;;;;;25.67;24.00;;;;;;;;;;5077344;28;20815;-78
2023/06/10 09:10:08;;;;;;;27.00;24.90;;;;;;;;;;5078281;28;21078;-78
2023/06/10 09:12:35;;;;;;;27.63;25.67;;;;;;;;;;5077532;28;20441;-78
2023/06/10 09:15:02;;;;;;;25.97;24.17;;;;;;;;;;5079121;28;20453;-78
2023/06/10 09:17:29;;;;;;;26.50;24.60;;;;;;;;;;5077182;28;20424;-78
2023/06/10 09:19:57;;;;;;;25.50;23.80;;;;;;;;;;5078627;28;21039;-78
2023/06/10 09:22:26;;;;;;;26.00;24.30;;;;;;;;;;5078720;28;20801;-77
2023/06/10 09:25:03;;;;;;;26.60;24.60;;;;;;;;;;5081705;28;20449;-85
2023/06/10 09:27:31;;;;;;;26.10;24.27;;;;;;;;;;5081569;28;20852;-77
2023/06/10 09:29:58;;;;;;;26.10;24.27;;;;;;;;;;5081918;28;20467;-78
2023/06/10 09:32:26;;;;;;;27.27;25.47;;;;;;;;;;5081554;28;20473;-77
2023/06/10 09:34:53;;;;;;;26.80;24.90;;;;;;;;;;5081799;28;20446;-78
2023/06/10 09:37:25;;;;;;;27.13;24.87;;;;;;;;;;5081218;28;20435;-78
2023/06/10 09:40:05;;;;;;;27.10;25.20;;;;;;;;;;5089091;28;20477;-78
2023/06/10 09:42:33;;;;;;;27.87;25.97;;;;;;;;;;5090129;28;20458;-78
2023/06/10 09:45:01;;;;;;;27.67;25.60;;;;;;;;;;5085534;28;20433;-78
2023/06/10 09:47:28;;;;;;;27.50;25.70;;;;;;;;;;5079832;28;20799;-78
2023/06/10 09:49:55;;;;;;;27.23;25.43;;;;;;;;;;5076963;28;20468;-80
2023/06/10 09:52:25;;;;;;;26.80;24.87;;;;;;;;;;5079573;28;20454;-78
2023/06/10 09:54:52;;;;;;;27.67;25.70;;;;;;;;;;5078869;28;20503;-78
2023/06/10 09:57:23;;;;;;;28.13;26.10;;;;;;;;;;5083543;28;20480;-78
2023/06/10 09:59:54;;;;;;;27.70;25.60;;;;;;;;;;5079686;28;20474;-78
2023/06/10 10:02:21;;;;;;;26.40;24.70;;;;;;;;;;5079287;28;20457;-77
2023/06/10 10:04:48;;;;;;;26.53;24.83;;;;;;;;;;5078630;28;20500;-78
2023/06/10 10:07:15;;;;;;;27.67;25.77;;;;;;;;;;5078110;28;20417;-77
2023/06/10 10:09:43;;;;;;;28.37;26.20;;;;;;;;;;5077777;28;20481;-78
2023/06/10 10:12:11;;;;;;;27.20;25.40;;;;;;;;;;5078519;28;20473;-78
2023/06/10 10:14:40;;;;;;;27.67;25.57;;;;;;;;;;5080257;28;20463;-78
2023/06/10 10:17:11;;;;;;;27.73;25.83;;;;;;;;;;5078315;28;20446;-78
2023/06/10 10:19:41;;;;;;;27.30;25.30;;;;;;;;;;5082376;28;20485;-78
2023/06/10 10:22:09;;;;;;;28.13;26.20;;;;;;;;;;5079280;28;20488;-78
2023/06/10 10:24:38;;;;;;;27.60;25.63;;;;;;;;;;5077934;28;20557;-79
2023/06/10 10:27:08;;;;;;;27.90;26.10;;;;;;;;;;5079296;28;20449;-77
2023/06/10 10:29:38;;;;;;;28.33;26.43;;;;;;;;;;5081761;28;20568;-78
2023/06/10 10:32:08;;;;;;;26.80;25.10;;;;;;;;;;5081309;28;20475;-78
2023/06/10 10:34:37;;;;;;;26.20;24.60;;;;;;;;;;5084026;28;20439;-78
2023/06/10 10:37:04;;;;;;;27.63;25.73;;;;;;;;;;5082362;28;20424;-78
2023/06/10 10:39:31;;;;;;;28.50;26.27;;;;;;;;;;5081731;28;20436;-79
2023/06/10 10:41:58;;;;;;;27.97;26.00;;;;;;;;;;5081689;28;20424;-78
2023/06/10 10:44:26;;;;;;;27.40;25.50;;;;;;;;;;5083690;28;20428;-78
2023/06/10 10:46:53;;;;;;;28.10;26.30;;;;;;;;;;5080323;28;20446;-78
2023/06/10 10:49:24;;;;;;;27.57;25.60;;;;;;;;;;5083709;28;20793;-77
2023/06/10 10:51:57;;;;;;;28.33;26.23;;;;;;;;;;5087123;28;20831;-83
2023/06/10 10:54:31;;;;;;;28.77;26.47;;;;;;;;;;5084966;28;20429;-82
2023/06/10 10:57:14;;;;;;;28.07;26.07;;;;;;;;;;5084403;28;20453;-77
2023/06/10 10:59:45;;;;;;;27.87;25.87;;;;;;;;;;5086497;28;20451;-77
2023/06/10 11:02:17;;;;;;;29.07;26.97;;;;;;;;;;5084154;28;20446;-76
2023/06/10 11:04:47;;;;;;;27.00;25.10;;;;;;;;;;5082342;28;20446;-80
2023/06/10 11:07:16;;;;;;;27.00;25.20;;;;;;;;;;5083664;28;20401;-78
2023/06/10 11:09:57;;;;;;;26.43;24.73;;;;;;;;;;5081963;28;20463;-77
2023/06/10 11:12:25;;;;;;;26.83;25.00;;;;;;;;;;5080975;28;20433;-76
2023/06/10 11:14:56;;;;;;;26.83;25.00;;;;;;;;;;5082942;28;20470;-77
2023/06/10 11:17:23;;;;;;;27.20;25.40;;;;;;;;;;5082178;28;20844;-77
2023/06/10 11:19:52;;;;;;;27.20;25.50;;;;;;;;;;5081492;28;20842;-77
2023/06/10 11:22:19;;;;;;;27.60;25.80;;;;;;;;;;5082016;28;20446;-77
2023/06/10 11:24:51;;;;;;;27.20;25.40;;;;;;;;;;5062272;28;20811;-77
2023/06/10 11:27:19;;;;;;;27.90;25.93;;;;;;;;;;5080150;28;20433;-77
2023/06/10 11:29:59;;;;;;;26.93;25.23;;;;;;;;;;5077536;28;20510;-76
2023/06/10 11:32:30;;;;;;;27.70;25.80;;;;;;;;;;5076961;28;20455;-76
2023/06/10 11:34:59;;;;;;;27.77;25.97;;;;;;;;;;5077640;28;20416;-76
2023/06/10 11:37:26;;;;;;;27.70;25.80;;;;;;;;;;5077042;28;20490;-76
2023/06/10 11:39:54;;;;;;;27.30;25.50;;;;;;;;;;5076895;28;20444;-75
2023/06/10 11:42:21;;;;;;;26.17;24.37;;;;;;;;;;5077810;28;20487;-75
2023/06/10 11:44:51;;;;;;;27.73;26.03;;;;;;;;;;5078042;28;20472;-76
2023/06/10 11:47:19;;;;;;;27.23;25.17;;;;;;;;;;5076505;28;20427;-76
2023/06/10 11:49:46;;;;;;;26.90;25.17;;;;;;;;;;5077270;28;20454;-76
2023/06/10 11:52:14;;;;;;;27.07;25.30;;;;;;;;;;5077949;28;20532;-76
2023/06/10 11:54:42;;;;;;;27.00;25.20;;;;;;;;;;5077309;28;20797;-77
2023/06/10 11:57:10;;;;;;;28.37;26.47;;;;;;;;;;5076687;28;20962;-76
2023/06/10 11:59:37;;;;;;;28.03;26.23;;;;;;;;;;5077094;28;20488;-77
2023/06/10 12:02:04;;;;;;;27.90;26.10;;;;;;;;;;5078478;28;20428;-77
2023/06/10 12:04:31;;;;;;;28.57;26.57;;;;;;;;;;5076981;28;20901;-77
2023/06/10 12:06:58;;;;;;;27.60;25.80;;;;;;;;;;5076603;28;20431;-77
2023/06/10 12:09:27;;;;;;;27.53;25.80;;;;;;;;;;5077215;28;20442;-77
2023/06/10 12:11:57;;;;;;;28.00;26.30;;;;;;;;;;5076858;28;20849;-77
2023/06/10 12:14:43;;;;;;;27.70;26.00;;;;;;;;;;5076619;28;20480;-77
2023/06/10 12:17:10;;;;;;;27.43;25.73;;;;;;;;;;5076476;28;20942;-77
2023/06/10 12:19:40;;;;;;;28.20;26.20;;;;;;;;;;5082910;28;20470;-77
2023/06/10 12:22:07;;;;;;;28.40;26.53;;;;;;;;;;5088770;28;20815;-84
2023/06/10 12:24:44;;;;;;;26.50;24.80;;;;;;;;;;5078846;28;20448;-79
2023/06/10 12:27:12;;;;;;;27.50;25.70;;;;;;;;;;5078419;28;20389;-79
2023/06/10 12:29:39;;;;;;;28.43;26.33;;;;;;;;;;5081586;28;20442;-77
2023/06/10 12:32:07;;;;;;;27.37;25.57;;;;;;;;;;5076737;28;20524;-77
2023/06/10 12:34:35;;;;;;;27.97;25.77;;;;;;;;;;5078548;28;20540;-77
2023/06/10 12:37:03;;;;;;;27.53;25.60;;;;;;;;;;5077459;28;20457;-76
2023/06/10 12:39:30;;;;;;;28.67;26.63;;;;;;;;;;5079437;28;20468;-76
2023/06/10 12:41:59;;;;;;;27.00;25.30;;;;;;;;;;5078890;28;20448;-76
2023/06/10 12:44:33;;;;;;;28.27;25.90;;;;;;;;;;5077464;28;20509;-76
2023/06/10 12:47:00;;;;;;;27.77;25.97;;;;;;;;;;5075360;28;20442;-76
2023/06/10 12:49:27;;;;;;;27.13;25.43;;;;;;;;;;5079276;28;20897;-77
2023/06/10 12:51:55;;;;;;;28.03;26.13;;;;;;;;;;5080477;28;20468;-77
2023/06/10 12:54:23;;;;;;;28.10;26.10;;;;;;;;;;5078791;28;20512;-78
2023/06/10 12:56:50;;;;;;;26.97;25.17;;;;;;;;;;5077518;28;20428;-79
2023/06/10 12:59:19;;;;;;;27.90;26.00;;;;;;;;;;5081790;28;20436;-77
2023/06/10 13:01:46;;;;;;;28.57;26.43;;;;;;;;;;5059094;28;20433;-77
2023/06/10 13:04:13;;;;;;;27.37;25.67;;;;;;;;;;5078867;28;20442;-77
2023/06/10 13:06:40;;;;;;;28.80;26.93;;;;;;;;;;5076639;28;20835;-77
2023/06/10 13:09:08;;;;;;;26.87;24.97;;;;;;;;;;5078413;28;20449;-77
2023/06/10 13:11:35;;;;;;;27.83;26.03;;;;;;;;;;5075329;28;20456;-77
2023/06/10 13:14:04;;;;;;;27.57;25.77;;;;;;;;;;5076703;28;20477;-77
2023/06/10 13:16:32;;;;;;;27.90;26.00;;;;;;;;;;5077010;28;20453;-77
2023/06/10 13:19:00;;;;;;;28.20;26.40;;;;;;;;;;5076470;28;20507;-77
2023/06/10 13:21:27;;;;;;;29.17;27.07;;;;;;;;;;5077667;28;20476;-77
2023/06/10 13:23:54;;;;;;;28.03;26.33;;;;;;;;;;5075815;28;20457;-77
2023/06/10 13:26:22;;;;;;;27.63;25.90;;;;;;;;;;5076318;28;20485;-78
2023/06/10 13:28:49;;;;;;;29.90;27.80;;;;;;;;;;5077624;28;20436;-78
2023/06/10 13:31:16;;;;;;;29.27;27.10;;;;;;;;;;5079487;28;20549;-78
2023/06/10 13:33:44;;;;;;;29.47;27.50;;;;;;;;;;5077802;28;20444;-79
2023/06/10 13:36:12;;;;;;;27.80;26.10;;;;;;;;;;5078935;28;20863;-77
2023/06/10 13:38:39;;;;;;;28.73;26.63;;;;;;;;;;5074787;28;20448;-77
2023/06/10 13:41:06;;;;;;;28.90;27.10;;;;;;;;;;5074657;28;20441;-77
2023/06/10 13:43:33;;;;;;;30.43;28.33;;;;;;;;;;5074321;28;20420;-77
2023/06/10 13:46:00;;;;;;;29.97;27.97;;;;;;;;;;5074108;28;20444;-78
2023/06/10 13:48:27;;;;;;;29.27;27.40;;;;;;;;;;5074178;28;20461;-78
2023/06/10 13:50:55;;;;;;;28.67;26.67;;;;;;;;;;5074075;28;20514;-78
2023/06/10 13:53:22;;;;;;;29.40;27.60;;;;;;;;;;5074587;28;20872;-77
2023/06/10 13:55:49;;;;;;;29.13;27.23;;;;;;;;;;5073474;28;20462;-77
2023/06/10 13:58:16;;;;;;;28.87;27.07;;;;;;;;;;5073896;28;21031;-77
2023/06/10 14:00:43;;;;;;;29.60;27.60;;;;;;;;;;5074304;28;20448;-77
2023/06/10 14:03:10;;;;;;;30.07;28.17;;;;;;;;;;5074177;28;20834;-77
2023/06/10 14:05:37;;;;;;;29.97;27.93;;;;;;;;;;5073506;28;20440;-76
2023/06/10 14:08:06;;;;;;;30.40;28.37;;;;;;;;;;5073786;28;20445;-76
2023/06/10 14:10:33;;;;;;;29.07;27.17;;;;;;;;;;5073418;28;20489;-79
2023/06/10 14:13:01;;;;;;;29.40;27.60;;;;;;;;;;5073649;28;20427;-77
2023/06/10 14:15:28;;;;;;;30.73;28.43;;;;;;;;;;5072924;28;20444;-77
2023/06/10 14:17:55;;;;;;;30.90;28.80;;;;;;;;;;5072747;28;20935;-77
2023/06/10 14:20:22;;;;;;;29.03;27.13;;;;;;;;;;5075144;28;20528;-77